createdAt,value
2018-11-10T00:01:46.588Z,4.50
2018-11-10T00:04:15.004Z,4.40
2018-11-10T00:06:43.332Z,4.40
2018-11-10T00:09:11.697Z,4.40
2018-11-10T00:11:40.044Z,4.30
2018-11-10T00:14:08.372Z,4.30
2018-11-10T00:16:36.767Z,4.30
2018-11-10T00:19:05.089Z,4.20
2018-11-10T00:21:33.449Z,4.20
2018-11-10T00:24:01.780Z,4.20
2018-11-10T00:26:30.141Z,4.20
2018-11-10T00:28:58.480Z,4.20
2018-11-10T00:31:27.288Z,4.20
2018-11-10T00:33:55.844Z,4.30
2018-11-10T00:36:24.220Z,4.30
2018-11-10T00:38:52.592Z,4.30
2018-11-10T00:41:21.012Z,4.30
2018-11-10T00:43:49.356Z,4.20
2018-11-10T00:46:17.721Z,4.20
2018-11-10T00:48:46.065Z,4.10
2018-11-10T00:51:14.464Z,4.10
2018-11-10T00:53:42.812Z,4.00
2018-11-10T00:56:11.187Z,4.00
2018-11-10T00:58:39.533Z,4.00
2018-11-10T01:01:07.885Z,4.00
2018-11-10T01:03:36.267Z,4.00
2018-11-10T01:06:04.605Z,4.00
2018-11-10T01:08:32.976Z,4.00
2018-11-10T01:11:01.365Z,3.90
2018-11-10T01:13:29.723Z,3.90
2018-11-10T01:15:58.055Z,3.80
2018-11-10T01:18:26.417Z,3.80
2018-11-10T01:20:54.744Z,3.80
2018-11-10T01:23:23.110Z,3.80
2018-11-10T01:25:51.452Z,3.80
2018-11-10T01:28:19.816Z,3.80
2018-11-10T01:30:48.180Z,3.80
2018-11-10T01:33:16.546Z,3.80
2018-11-10T01:35:44.888Z,3.70
2018-11-10T01:38:13.247Z,3.70
2018-11-10T01:40:41.649Z,3.70
2018-11-10T01:43:10.003Z,3.70
2018-11-10T01:45:38.356Z,3.70
2018-11-10T01:48:06.760Z,3.70
2018-11-10T01:50:35.084Z,3.70
2018-11-10T01:53:03.451Z,3.70
2018-11-10T01:55:31.797Z,3.80
2018-11-10T01:58:00.157Z,3.80
2018-11-10T02:00:28.476Z,3.80
2018-11-10T02:02:56.839Z,3.80
2018-11-10T02:05:25.219Z,3.80
2018-11-10T02:07:53.580Z,3.80
2018-11-10T02:10:21.925Z,3.80
2018-11-10T02:12:50.301Z,3.80
2018-11-10T02:15:18.647Z,3.80
2018-11-10T02:20:21.720Z,3.80
2018-11-10T02:22:50.100Z,3.80
2018-11-10T02:25:18.472Z,3.80
2018-11-10T02:27:46.895Z,3.80
2018-11-10T02:30:15.252Z,3.80
2018-11-10T02:32:43.657Z,3.90
2018-11-10T02:35:12.292Z,3.90
2018-11-10T02:37:41.027Z,3.90
2018-11-10T02:40:11.407Z,3.90
2018-11-10T02:42:39.779Z,3.90
2018-11-10T02:45:09.203Z,3.90
2018-11-10T02:47:37.573Z,4.00
2018-11-10T02:50:05.999Z,4.10
2018-11-10T02:52:34.416Z,4.20
2018-11-10T02:55:02.761Z,4.20
2018-11-10T02:57:31.138Z,4.30
2018-11-10T02:59:59.471Z,4.30
2018-11-10T03:02:27.884Z,4.40
2018-11-10T03:04:56.232Z,4.40
2018-11-10T03:07:24.604Z,4.40
2018-11-10T03:09:52.928Z,4.40
2018-11-10T03:12:21.257Z,4.40
2018-11-10T03:14:49.628Z,4.40
2018-11-10T03:17:17.948Z,4.40
2018-11-10T03:19:46.316Z,4.40
2018-11-10T03:22:14.636Z,4.50
2018-11-10T03:24:42.996Z,4.50
2018-11-10T03:27:11.331Z,4.50
2018-11-10T03:29:39.705Z,4.50
2018-11-10T03:32:08.072Z,4.50
2018-11-10T03:34:36.432Z,4.50
2018-11-10T03:37:04.844Z,4.60
2018-11-10T03:39:33.256Z,4.60
2018-11-10T03:42:01.581Z,4.60
2018-11-10T03:44:29.952Z,4.70
2018-11-10T03:46:58.281Z,4.70
2018-11-10T03:49:26.644Z,4.70
2018-11-10T03:51:54.980Z,4.80
2018-11-10T03:54:23.336Z,4.80
2018-11-10T03:56:51.663Z,4.80
2018-11-10T03:59:20.045Z,4.80
2018-11-10T04:01:48.403Z,4.80
2018-11-10T04:04:16.757Z,4.80
2018-11-10T04:06:45.085Z,4.80
2018-11-10T04:09:13.449Z,4.80
2018-11-10T04:11:41.781Z,4.80
2018-11-10T04:14:10.636Z,4.80
2018-11-10T04:16:38.968Z,4.80
2018-11-10T04:19:07.331Z,4.80
2018-11-10T04:21:35.668Z,4.90
2018-11-10T04:24:04.252Z,4.90
2018-11-10T04:26:32.632Z,4.90
2018-11-10T04:29:00.996Z,4.90
2018-11-10T04:31:29.317Z,5.00
2018-11-10T04:33:57.708Z,5.00
2018-11-10T04:36:26.299Z,5.00
2018-11-10T04:38:54.670Z,5.00
2018-11-10T04:41:23.038Z,5.00
2018-11-10T04:43:51.413Z,5.10
2018-11-10T04:46:19.737Z,5.10
2018-11-10T04:48:48.107Z,5.10
2018-11-10T04:51:16.433Z,5.10
2018-11-10T04:53:44.788Z,5.10
2018-11-10T04:56:13.161Z,5.10
2018-11-10T04:58:41.864Z,5.20
2018-11-10T05:01:10.249Z,5.20
2018-11-10T05:03:38.578Z,5.20
2018-11-10T05:06:06.940Z,5.20
2018-11-10T05:08:35.274Z,5.30
2018-11-10T05:11:03.670Z,5.30
2018-11-10T05:13:32.048Z,5.20
2018-11-10T05:16:00.421Z,5.20
2018-11-10T05:18:28.760Z,5.20
2018-11-10T05:20:57.124Z,5.20
2018-11-10T05:23:25.462Z,5.20
2018-11-10T05:25:53.825Z,5.20
2018-11-10T05:28:22.152Z,5.20
2018-11-10T05:30:50.524Z,5.30
2018-11-10T05:33:18.888Z,5.30
2018-11-10T05:35:47.219Z,5.30
2018-11-10T05:38:15.715Z,5.30
2018-11-10T05:40:44.151Z,5.30
2018-11-10T05:43:12.508Z,5.40
2018-11-10T05:45:40.836Z,5.40
2018-11-10T05:48:09.196Z,5.40
2018-11-10T05:50:37.520Z,5.40
2018-11-10T05:53:05.940Z,5.40
2018-11-10T05:55:34.256Z,5.40
2018-11-10T05:58:02.898Z,5.40
2018-11-10T06:00:31.225Z,5.40
2018-11-10T06:02:59.572Z,5.50
2018-11-10T06:05:27.947Z,5.50
2018-11-10T06:07:56.272Z,5.50
2018-11-10T06:10:24.864Z,5.50
2018-11-10T06:12:53.068Z,5.50
2018-11-10T06:15:21.397Z,5.50
2018-11-10T06:17:49.740Z,5.50
2018-11-10T06:20:18.196Z,5.50
2018-11-10T06:22:46.531Z,5.50
2018-11-10T06:25:14.896Z,5.50
2018-11-10T06:27:43.260Z,5.50
2018-11-10T06:30:12.526Z,5.60
2018-11-10T06:32:40.899Z,5.60
2018-11-10T06:35:09.995Z,5.60
2018-11-10T06:37:38.556Z,5.60
2018-11-10T06:40:08.853Z,5.60
2018-11-10T06:42:37.189Z,5.60
2018-11-10T06:45:06.140Z,5.60
2018-11-10T06:47:34.472Z,5.70
2018-11-10T06:50:04.194Z,5.70
2018-11-10T06:52:32.534Z,5.70
2018-11-10T06:55:00.904Z,5.70
2018-11-10T06:57:29.223Z,5.80
2018-11-10T06:59:57.581Z,5.80
2018-11-10T07:02:25.911Z,5.80
2018-11-10T07:04:54.316Z,5.80
2018-11-10T07:07:22.669Z,5.80
2018-11-10T07:09:51.044Z,5.80
2018-11-10T07:12:19.389Z,5.90
2018-11-10T07:14:47.740Z,5.90
2018-11-10T07:17:20.865Z,5.90
2018-11-10T07:19:49.256Z,5.90
2018-11-10T07:22:17.602Z,6.00
2018-11-10T07:24:45.995Z,6.00
2018-11-10T07:27:14.370Z,6.10
2018-11-10T07:29:42.735Z,6.10
2018-11-10T07:32:11.091Z,6.10
2018-11-10T07:34:40.669Z,6.20
2018-11-10T07:37:09.059Z,6.20
2018-11-10T07:39:37.441Z,6.20
2018-11-10T07:42:05.899Z,6.30
2018-11-10T07:44:34.272Z,6.30
2018-11-10T07:47:02.606Z,6.40
2018-11-10T07:49:31.063Z,6.40
2018-11-10T07:51:59.348Z,6.40
2018-11-10T07:54:27.797Z,6.40
2018-11-10T07:56:56.142Z,6.50
2018-11-10T07:59:24.520Z,6.50
2018-11-10T08:01:52.861Z,6.60
2018-11-10T08:04:21.266Z,6.70
2018-11-10T08:06:49.585Z,6.90
2018-11-10T08:09:17.957Z,6.90
2018-11-10T08:11:46.352Z,7.00
2018-11-10T08:14:14.698Z,7.00
2018-11-10T08:16:43.042Z,7.00
2018-11-10T08:19:11.428Z,6.90
2018-11-10T08:21:39.795Z,6.90
2018-11-10T08:24:08.193Z,6.90
2018-11-10T08:26:36.565Z,6.90
2018-11-10T08:29:05.324Z,6.90
2018-11-10T08:31:33.661Z,6.90
2018-11-10T08:34:02.025Z,7.00
2018-11-10T08:36:30.356Z,7.00
2018-11-10T08:38:58.747Z,7.10
2018-11-10T08:41:27.076Z,7.10
2018-11-10T08:43:55.432Z,7.10
2018-11-10T08:46:23.889Z,7.10
2018-11-10T08:48:52.220Z,7.20
2018-11-10T08:51:20.610Z,7.20
2018-11-10T08:53:48.948Z,7.20
2018-11-10T08:56:17.344Z,7.20
2018-11-10T08:58:45.680Z,7.20
2018-11-10T09:01:14.076Z,7.30
2018-11-10T09:03:42.441Z,7.30
2018-11-10T09:06:10.825Z,7.30
2018-11-10T09:08:39.174Z,7.40
2018-11-10T09:11:07.597Z,7.40
2018-11-10T09:13:35.920Z,7.50
2018-11-10T09:16:04.340Z,7.50
2018-11-10T09:18:32.664Z,7.60
2018-11-10T09:21:01.061Z,7.60
2018-11-10T09:23:29.387Z,7.70
2018-11-10T09:25:57.786Z,7.70
2018-11-10T09:28:26.112Z,7.80
2018-11-10T09:30:54.602Z,7.90
2018-11-10T09:33:22.923Z,8.00
2018-11-10T09:35:51.300Z,8.10
2018-11-10T09:38:19.664Z,8.20
2018-11-10T09:40:48.061Z,8.30
2018-11-10T09:43:16.392Z,8.40
2018-11-10T09:45:44.780Z,8.60
2018-11-10T09:48:13.172Z,8.70
2018-11-10T09:50:41.580Z,8.70
2018-11-10T09:53:09.913Z,8.80
2018-11-10T09:55:38.372Z,8.90
2018-11-10T09:58:06.696Z,9.00
2018-11-10T10:00:35.076Z,9.20
2018-11-10T10:03:03.447Z,9.30
2018-11-10T10:05:31.844Z,9.40
2018-11-10T10:08:00.171Z,9.60
2018-11-10T10:10:28.548Z,9.70
2018-11-10T10:12:56.864Z,9.90
2018-11-10T10:15:25.256Z,10.00
2018-11-10T10:17:53.596Z,10.10
2018-11-10T10:20:21.984Z,10.30
2018-11-10T10:22:50.752Z,10.40
2018-11-10T10:25:19.804Z,10.60
2018-11-10T10:27:48.912Z,10.60
2018-11-10T10:30:18.875Z,10.70
2018-11-10T10:32:48.013Z,10.80
2018-11-10T10:35:16.750Z,11.00
2018-11-10T10:37:46.118Z,11.10
2018-11-10T10:40:14.943Z,11.20
2018-11-10T10:42:43.857Z,11.30
2018-11-10T10:45:15.608Z,11.40
2018-11-10T10:47:44.249Z,11.50
2018-11-10T10:50:14.819Z,11.50
2018-11-10T10:52:43.256Z,11.50
2018-11-10T10:55:12.824Z,11.60
2018-11-10T10:57:41.641Z,11.70
2018-11-10T11:00:17.629Z,11.80
2018-11-10T11:02:51.387Z,11.80
2018-11-10T11:05:26.804Z,11.90
2018-11-10T11:07:55.558Z,12.00
2018-11-10T11:10:24.244Z,12.10
2018-11-10T11:12:52.599Z,12.20
2018-11-10T11:15:21.436Z,12.20
2018-11-10T11:17:49.740Z,12.30
2018-11-10T11:20:18.112Z,12.30
2018-11-10T11:22:46.497Z,12.30
2018-11-10T11:25:15.236Z,12.40
2018-11-10T11:27:43.923Z,12.40
2018-11-10T11:30:12.257Z,12.50
2018-11-10T11:32:40.660Z,12.60
2018-11-10T11:35:10.905Z,12.60
2018-11-10T11:37:39.717Z,12.60
2018-11-10T11:40:09.759Z,12.60
2018-11-10T11:42:38.267Z,12.70
2018-11-10T11:45:07.637Z,12.70
2018-11-10T11:47:36.028Z,12.70
2018-11-10T11:50:05.337Z,12.80
2018-11-10T11:52:33.728Z,12.80
2018-11-10T11:55:02.065Z,12.90
2018-11-10T11:57:30.490Z,13.00
2018-11-10T11:59:58.817Z,13.00
2018-11-10T12:02:27.196Z,13.10
2018-11-10T12:04:55.533Z,13.10
2018-11-10T12:07:23.920Z,13.10
2018-11-10T12:09:52.249Z,13.20
2018-11-10T12:12:20.648Z,13.30
2018-11-10T12:14:49.002Z,13.30
2018-11-10T12:17:17.478Z,13.40
2018-11-10T12:19:45.829Z,13.40
2018-11-10T12:22:14.318Z,13.40
2018-11-10T12:24:42.581Z,13.50
2018-11-10T12:27:10.976Z,13.50
2018-11-10T12:29:39.310Z,13.40
2018-11-10T12:32:08.045Z,13.50
2018-11-10T12:34:36.396Z,13.40
2018-11-10T12:37:05.014Z,13.50
2018-11-10T12:39:33.396Z,13.50
2018-11-10T12:42:01.722Z,13.50
2018-11-10T12:44:30.113Z,13.60
2018-11-10T12:46:58.461Z,13.60
2018-11-10T12:49:26.865Z,13.60
2018-11-10T12:51:55.194Z,13.70
2018-11-10T12:54:23.826Z,13.70
2018-11-10T12:56:52.192Z,13.70
2018-11-10T12:59:20.589Z,13.80
2018-11-10T13:01:48.936Z,13.80
2018-11-10T13:04:17.304Z,13.80
2018-11-10T13:06:45.634Z,13.80
2018-11-10T13:09:14.007Z,13.90
2018-11-10T13:11:42.459Z,13.80
2018-11-10T13:14:11.313Z,13.80
2018-11-10T13:16:39.996Z,13.80
2018-11-10T13:19:09.826Z,13.80
2018-11-10T13:21:38.657Z,13.80
2018-11-10T13:24:07.118Z,13.80
2018-11-10T13:26:35.444Z,13.80
2018-11-10T13:29:03.892Z,13.80
2018-11-10T13:31:32.330Z,13.80
2018-11-10T13:34:00.636Z,13.80
2018-11-10T13:36:28.980Z,13.80
2018-11-10T13:38:57.353Z,13.80
2018-11-10T13:41:25.680Z,13.80
2018-11-10T13:43:54.076Z,13.90
2018-11-10T13:46:22.419Z,13.90
2018-11-10T13:48:51.080Z,13.90
2018-11-10T13:51:19.556Z,14.00
2018-11-10T13:53:47.865Z,13.90
2018-11-10T13:56:16.196Z,14.00
2018-11-10T13:58:44.590Z,14.00
2018-11-10T14:01:12.927Z,13.90
2018-11-10T14:03:41.313Z,13.90
2018-11-10T14:06:09.765Z,13.90
2018-11-10T14:08:38.149Z,13.80
2018-11-10T14:11:06.514Z,13.80
2018-11-10T14:13:34.880Z,13.80
2018-11-10T14:16:03.257Z,13.80
2018-11-10T14:18:31.736Z,13.80
2018-11-10T14:21:00.161Z,13.80
2018-11-10T14:23:28.537Z,13.80
2018-11-10T14:25:56.890Z,13.80
2018-11-10T14:28:25.324Z,13.70
2018-11-10T14:30:53.660Z,13.70
2018-11-10T14:33:22.061Z,13.60
2018-11-10T14:35:50.419Z,13.60
2018-11-10T14:38:18.792Z,13.60
2018-11-10T14:40:47.140Z,13.50
2018-11-10T14:43:15.517Z,13.50
2018-11-10T14:45:43.868Z,13.40
2018-11-10T14:48:12.240Z,13.40
2018-11-10T14:50:40.677Z,13.40
2018-11-10T14:53:09.344Z,13.40
2018-11-10T14:55:37.578Z,13.40
2018-11-10T14:58:06.206Z,13.30
2018-11-10T15:00:34.589Z,13.30
2018-11-10T15:03:03.108Z,13.30
2018-11-10T15:05:31.666Z,13.30
2018-11-10T15:08:00.161Z,13.20
2018-11-10T15:10:28.612Z,13.30
2018-11-10T15:12:57.048Z,13.20
2018-11-10T15:15:25.576Z,13.20
2018-11-10T15:17:54.329Z,13.10
2018-11-10T15:20:22.712Z,13.10
2018-11-10T15:22:52.030Z,13.10
2018-11-10T15:25:21.366Z,13.00
2018-11-10T15:27:50.112Z,13.00
2018-11-10T15:30:20.033Z,13.00
2018-11-10T15:32:49.034Z,12.90
2018-11-10T15:35:18.920Z,12.90
2018-11-10T15:37:48.585Z,12.90
2018-11-10T15:40:17.704Z,12.80
2018-11-10T15:42:46.117Z,12.80
2018-11-10T15:45:15.483Z,12.70
2018-11-10T15:47:44.135Z,12.70
2018-11-10T15:50:13.978Z,12.70
2018-11-10T15:52:42.312Z,12.60
2018-11-10T15:55:11.577Z,12.60
2018-11-10T15:57:40.333Z,12.50
2018-11-10T16:00:12.225Z,12.50
2018-11-10T16:02:40.777Z,12.40
2018-11-10T16:05:09.896Z,12.40
2018-11-10T16:07:38.461Z,12.40
2018-11-10T16:10:07.354Z,12.30
2018-11-10T16:12:35.838Z,12.30
2018-11-10T16:15:04.596Z,12.30
2018-11-10T16:17:32.924Z,12.20
2018-11-10T16:20:01.308Z,12.20
2018-11-10T16:22:29.656Z,12.20
2018-11-10T16:24:58.180Z,12.10
2018-11-10T16:27:26.526Z,12.10
2018-11-10T16:29:54.982Z,12.10
2018-11-10T16:32:23.308Z,12.00
2018-11-10T16:34:51.673Z,12.00
2018-11-10T16:37:20.099Z,12.00
2018-11-10T16:39:48.388Z,12.00
2018-11-10T16:42:16.747Z,11.90
2018-11-10T16:44:45.140Z,11.90
2018-11-10T16:47:13.456Z,11.80
2018-11-10T16:49:41.836Z,11.80
2018-11-10T16:52:10.233Z,11.70
2018-11-10T16:54:38.616Z,11.70
2018-11-10T16:57:06.968Z,11.70
2018-11-10T16:59:35.340Z,11.80
2018-11-10T17:02:03.672Z,11.80
2018-11-10T17:04:32.068Z,11.80
2018-11-10T17:07:00.424Z,11.80
2018-11-10T17:09:28.800Z,11.80
2018-11-10T17:11:57.124Z,11.70
2018-11-10T17:14:25.497Z,11.70
2018-11-10T17:16:53.848Z,11.60
2018-11-10T17:19:22.317Z,11.60
2018-11-10T17:21:50.824Z,11.60
2018-11-10T17:24:19.101Z,11.60
2018-11-10T17:26:47.446Z,11.60
2018-11-10T17:29:15.808Z,11.50
2018-11-10T17:31:44.152Z,11.50
2018-11-10T17:34:12.607Z,11.50
2018-11-10T17:36:40.975Z,11.40
2018-11-10T17:39:10.089Z,11.50
2018-11-10T17:41:38.392Z,11.40
2018-11-10T17:44:07.272Z,11.40
2018-11-10T17:46:35.768Z,11.40
2018-11-10T17:49:04.164Z,11.30
2018-11-10T17:51:32.545Z,11.30
2018-11-10T17:54:00.876Z,11.30
2018-11-10T17:56:29.439Z,11.20
2018-11-10T17:58:57.801Z,11.20
2018-11-10T18:01:26.284Z,11.10
2018-11-10T18:03:54.652Z,11.10
2018-11-10T18:06:22.976Z,11.10
2018-11-10T18:08:51.378Z,11.10
2018-11-10T18:11:19.831Z,11.00
2018-11-10T18:13:48.201Z,11.00
2018-11-10T18:16:16.537Z,11.00
2018-11-10T18:18:44.932Z,10.90
2018-11-10T18:21:13.261Z,10.90
2018-11-10T18:23:41.640Z,10.90
2018-11-10T18:26:09.986Z,10.80
2018-11-10T18:28:38.343Z,10.80
2018-11-10T18:31:06.914Z,10.80
2018-11-10T18:33:35.285Z,10.70
2018-11-10T18:36:03.768Z,10.70
2018-11-10T18:38:32.214Z,10.70
2018-11-10T18:41:00.654Z,10.60
2018-11-10T18:43:29.049Z,10.60
2018-11-10T18:45:57.381Z,10.60
2018-11-10T18:48:25.760Z,10.50
2018-11-10T18:50:54.104Z,10.50
2018-11-10T18:53:22.466Z,10.50
2018-11-10T18:55:50.920Z,10.50
2018-11-10T18:58:19.449Z,10.40
2018-11-10T19:00:47.783Z,10.40
2018-11-10T19:03:16.159Z,10.40
2018-11-10T19:05:44.843Z,10.30
2018-11-10T19:08:13.860Z,10.30
2018-11-10T19:10:42.792Z,10.20
2018-11-10T19:13:11.121Z,10.20
2018-11-10T19:15:39.505Z,10.20
2018-11-10T19:18:07.848Z,10.10
2018-11-10T19:20:36.248Z,10.10
2018-11-10T19:23:04.875Z,10.00
2018-11-10T19:25:33.218Z,10.00
2018-11-10T19:28:01.561Z,10.00
2018-11-10T19:30:30.009Z,10.00
2018-11-10T19:32:58.341Z,9.90
2018-11-10T19:35:26.753Z,9.90
2018-11-10T19:37:55.092Z,9.90
2018-11-10T19:40:23.529Z,9.90
2018-11-10T19:42:51.911Z,9.80
2018-11-10T19:45:20.268Z,9.80
2018-11-10T19:47:48.593Z,9.80
2018-11-10T19:50:17.185Z,9.80
2018-11-10T19:52:45.776Z,9.80
2018-11-10T19:55:15.669Z,9.70
2018-11-10T19:57:44.081Z,9.70
2018-11-10T20:00:15.408Z,9.70
2018-11-10T20:02:43.762Z,9.70
2018-11-10T20:05:12.146Z,9.70
2018-11-10T20:07:40.651Z,9.60
2018-11-10T20:10:09.908Z,9.60
2018-11-10T20:12:38.252Z,9.60
2018-11-10T20:15:07.864Z,9.60
2018-11-10T20:17:36.223Z,9.60
2018-11-10T20:20:04.640Z,9.50
2018-11-10T20:22:32.968Z,9.50
2018-11-10T20:25:01.329Z,9.50
2018-11-10T20:27:29.659Z,9.40
2018-11-10T20:29:58.032Z,9.40
2018-11-10T20:32:26.388Z,9.40
2018-11-10T20:34:54.790Z,9.40
2018-11-10T20:37:23.153Z,9.40
2018-11-10T20:39:51.488Z,9.40
2018-11-10T20:42:19.856Z,9.40
2018-11-10T20:44:48.213Z,9.40
2018-11-10T20:47:16.604Z,9.40
2018-11-10T20:49:44.928Z,9.30
2018-11-10T20:52:13.320Z,9.30
2018-11-10T20:54:41.653Z,9.30
2018-11-10T20:57:10.044Z,9.20
2018-11-10T20:59:38.364Z,9.20
2018-11-10T21:02:06.872Z,9.20
2018-11-10T21:04:35.319Z,9.20
2018-11-10T21:07:03.733Z,9.20
2018-11-10T21:09:32.061Z,9.20
2018-11-10T21:12:00.432Z,9.20
2018-11-10T21:14:28.773Z,9.10
2018-11-10T21:16:57.181Z,9.10
2018-11-10T21:19:25.512Z,9.10
2018-11-10T21:21:53.896Z,9.10
2018-11-10T21:24:22.248Z,9.10
2018-11-10T21:26:50.626Z,9.10
2018-11-10T21:29:19.005Z,9.10
2018-11-10T21:31:47.383Z,9.10
2018-11-10T21:34:15.891Z,9.20
2018-11-10T21:36:44.176Z,9.10
2018-11-10T21:39:12.508Z,9.10
2018-11-10T21:41:40.988Z,9.10
2018-11-10T21:44:09.325Z,9.10
2018-11-10T21:46:37.729Z,9.10
2018-11-10T21:49:06.330Z,9.10
2018-11-10T21:51:34.653Z,9.00
2018-11-10T21:54:03.016Z,9.00
2018-11-10T21:56:31.413Z,9.10
2018-11-10T21:58:59.776Z,9.00
2018-11-10T22:01:28.104Z,9.00
2018-11-10T22:03:56.434Z,9.00
2018-11-10T22:06:24.804Z,9.00
2018-11-10T22:08:53.191Z,9.00
2018-11-10T22:11:21.580Z,9.00
2018-11-10T22:13:49.906Z,9.00
2018-11-10T22:16:18.339Z,8.90
2018-11-10T22:18:46.710Z,8.90
2018-11-10T22:21:15.103Z,8.90
2018-11-10T22:23:43.432Z,8.90
2018-11-10T22:26:11.821Z,8.90
2018-11-10T22:28:40.157Z,8.90
2018-11-10T22:31:08.678Z,8.90
2018-11-10T22:33:36.953Z,8.90
2018-11-10T22:36:05.637Z,8.90
2018-11-10T22:38:34.019Z,8.80
2018-11-10T22:41:02.420Z,8.80
2018-11-10T22:43:30.784Z,8.80
2018-11-10T22:45:59.153Z,8.80
2018-11-10T22:48:27.489Z,8.80
2018-11-10T22:50:55.855Z,8.80
2018-11-10T22:53:24.224Z,8.80
2018-11-10T22:55:52.583Z,8.80
2018-11-10T22:58:20.908Z,8.80
2018-11-10T23:00:54.778Z,8.80
2018-11-10T23:03:23.111Z,8.80
2018-11-10T23:05:51.480Z,8.80
2018-11-10T23:08:19.816Z,8.90
2018-11-10T23:10:48.176Z,8.90
2018-11-10T23:13:16.509Z,8.90
2018-11-10T23:15:44.867Z,8.90
2018-11-10T23:18:13.185Z,8.90
2018-11-10T23:20:41.564Z,8.90
2018-11-10T23:23:09.935Z,8.90
2018-11-10T23:25:38.276Z,8.90
2018-11-10T23:28:06.624Z,8.90
2018-11-10T23:30:40.583Z,8.90
2018-11-10T23:33:08.935Z,8.90
2018-11-10T23:35:37.301Z,8.90
2018-11-10T23:38:05.777Z,8.90
2018-11-10T23:40:34.148Z,8.90
2018-11-10T23:43:02.493Z,9.00
2018-11-10T23:45:30.848Z,9.00
2018-11-10T23:47:59.192Z,9.00
2018-11-10T23:50:27.555Z,9.10
2018-11-10T23:52:55.887Z,9.00
2018-11-10T23:55:24.256Z,9.10
2018-11-10T23:57:52.612Z,9.10
